Terminal Aerodrome Forecast
Issued by NWS

Home | Current Version | Previous Version | Text Only | Print | Product List | Glossary On
Versions: 1 2 3 4 5 6 7 8 9 10 11 12 13
000
FTUS42 TJSJ 241700
TAFJSJ
TAF
TJSJ 241738Z 2418/2518 11012G18KT P6SM VCSH SCT025 SCT040 SCT090
     FM242230 12007KT P6SM FEW030 SCT070
     FM250600 14003KT P6SM VCSH SCT022 SCT040
     FM251400 09009KT P6SM FEW030 SCT070=

USA.gov is the U.S. government's official web portal to all federal, state and local government web resources and services.